Time;durP1;ratioP1;P1;durP2;ratioP2;P2;SDS_P1;SDS_P2;PMS_P1;PMS_P2;Temp;Humidity;BMP_temperature;BMP_pressure;BME280_temperature;BME280_humidity;BME280_pressure;Samples;Min_cycle;Max_cycle;Signal;HPM_P1;HPM_P2
2021/01/30 00:01:19;;;;;;;7.45;3.03;;;7.10;99.90;;;;;;4145925;28;20084;-83
2021/01/30 00:03:20;;;;;;;9.90;3.80;;;7.10;99.90;;;;;;4162617;28;20040;-83
2021/01/30 00:05:43;;;;;;;10.68;3.50;;;7.10;99.90;;;;;;4136359;28;20108;-83
2021/01/30 00:07:52;;;;;;;7.88;3.05;;;7.00;99.90;;;;;;4162104;28;20033;-83
2021/01/30 00:09:54;;;;;;;13.52;5.00;;;7.00;99.90;;;;;;4162953;28;20490;-83
2021/01/30 00:12:08;;;;;;;17.17;6.50;;;6.90;99.90;;;;;;4164490;28;20431;-83
2021/01/30 00:14:08;;;;;;;16.58;6.53;;;6.90;99.90;;;;;;4162049;28;20474;-83
2021/01/30 00:16:14;;;;;;;12.02;6.30;;;6.80;99.90;;;;;;4162734;28;20037;-83
2021/01/30 00:18:16;;;;;;;11.52;7.65;;;6.80;99.90;;;;;;4166598;28;20041;-83
2021/01/30 00:20:24;;;;;;;;;;;6.80;99.90;;;;;;4161963;28;20044;-83
2021/01/30 00:22:39;;;;;;;15.90;8.73;;;6.60;99.90;;;;;;4163591;28;20343;-83
2021/01/30 00:24:42;;;;;;;17.65;10.73;;;6.60;99.90;;;;;;4155173;28;20112;-83
2021/01/30 00:26:43;;;;;;;20.73;10.82;;;6.50;99.90;;;;;;4161351;28;20029;-83
2021/01/30 00:28:44;;;;;;;21.20;10.88;;;6.40;99.90;;;;;;4163232;28;20059;-83
2021/01/30 00:30:45;;;;;;;23.02;10.55;;;6.30;99.90;;;;;;4152845;28;20122;-83
2021/01/30 00:32:46;;;;;;;23.13;11.60;;;6.20;99.90;;;;;;4169578;28;20171;-83
2021/01/30 00:34:48;;;;;;;21.42;10.93;;;6.20;99.90;;;;;;4171505;28;20040;-83
2021/01/30 00:36:50;;;;;;;25.77;12.77;;;6.10;99.90;;;;;;4176398;28;20034;-83
2021/01/30 00:38:52;;;;;;;23.35;11.57;;;6.00;99.90;;;;;;4169896;28;21044;-83
2021/01/30 00:40:53;;;;;;;22.60;11.35;;;5.90;99.90;;;;;;4167934;28;20052;-83
2021/01/30 00:42:54;;;;;;;16.60;10.10;;;5.90;99.90;;;;;;4161229;28;20033;-83
2021/01/30 00:44:55;;;;;;;20.70;11.00;;;5.90;99.90;;;;;;4161591;28;20508;-83
2021/01/30 00:46:57;;;;;;;17.65;10.20;;;5.90;99.90;;;;;;4164421;28;20045;-83
2021/01/30 00:48:57;;;;;;;22.67;9.88;;;5.90;99.90;;;;;;4171537;28;22912;-83
2021/01/30 00:50:58;;;;;;;22.75;10.50;;;5.80;99.90;;;;;;4165160;28;20037;-83
2021/01/30 00:52:59;;;;;;;22.10;11.02;;;5.80;99.90;;;;;;4161011;28;20021;-83
2021/01/30 00:55:00;;;;;;;23.85;10.57;;;5.70;99.90;;;;;;4161758;28;20034;-83
2021/01/30 00:57:01;;;;;;;20.50;10.85;;;5.60;99.90;;;;;;4145409;28;20166;-83
2021/01/30 00:59:02;;;;;;;19.42;10.07;;;5.60;99.90;;;;;;4161686;28;20030;-83
2021/01/30 01:01:02;;;;;;;18.02;9.60;;;5.60;99.90;;;;;;4153240;28;20034;-83
2021/01/30 01:03:03;;;;;;;20.13;10.82;;;5.60;99.90;;;;;;4143373;28;20030;-83
2021/01/30 01:05:05;;;;;;;17.75;10.07;;;5.50;99.90;;;;;;4182048;28;20021;-82
2021/01/30 01:07:15;;;;;;;20.05;11.02;;;5.50;99.90;;;;;;4165404;28;20092;-82
2021/01/30 01:09:18;;;;;;;18.73;9.73;;;5.40;99.90;;;;;;4169790;28;20032;-83
2021/01/30 01:11:19;;;;;;;19.65;10.52;;;5.40;99.90;;;;;;4143456;28;20041;-83
2021/01/30 01:13:20;;;;;;;17.45;8.35;;;5.40;99.90;;;;;;4150969;28;20049;-82
2021/01/30 01:15:22;;;;;;;20.63;10.40;;;5.30;99.90;;;;;;4163684;28;20123;-82
2021/01/30 01:17:22;;;;;;;16.20;10.30;;;5.30;99.90;;;;;;4161248;28;20036;-82
2021/01/30 01:19:23;;;;;;;20.83;10.73;;;5.30;99.90;;;;;;4176905;28;20481;-82
2021/01/30 01:21:23;;;;;;;17.77;11.23;;;5.20;99.90;;;;;;4161579;28;20394;-82
2021/01/30 01:23:24;;;;;;;14.65;10.20;;;5.10;99.90;;;;;;4169749;28;20021;-82
2021/01/30 01:25:25;;;;;;;15.45;10.10;;;5.00;99.90;;;;;;4129548;28;20037;-83
2021/01/30 01:27:25;;;;;;;13.70;9.48;;;5.00;99.90;;;;;;4160967;28;20500;-83
2021/01/30 01:29:58;;;;;;;15.93;9.05;;;4.90;99.90;;;;;;4160769;28;20036;-83
2021/01/30 01:31:59;;;;;;;14.52;8.20;;;4.90;99.90;;;;;;4160842;28;20066;-83
2021/01/30 01:33:59;;;;;;;13.02;8.93;;;4.90;99.90;;;;;;4169729;28;20405;-83
2021/01/30 01:36:00;;;;;;;14.57;8.43;;;4.90;99.90;;;;;;4161277;28;20536;-83
2021/01/30 01:38:00;;;;;;;12.82;8.32;;;4.80;99.90;;;;;;4162414;28;20440;-83
2021/01/30 01:40:02;;;;;;;17.85;8.25;;;4.80;99.90;;;;;;4165678;28;20099;-83
2021/01/30 01:42:19;;;;;;;12.43;8.02;;;4.80;99.90;;;;;;4158206;28;20042;-83
2021/01/30 01:44:19;;;;;;;13.45;7.57;;;4.80;99.90;;;;;;4165864;28;20100;-83
2021/01/30 01:46:33;;;;;;;14.20;7.55;;;4.80;99.90;;;;;;4147037;28;20036;-83
2021/01/30 01:48:40;;;;;;;11.90;7.05;;;4.80;99.90;;;;;;4153415;28;20042;-83
2021/01/30 01:50:45;;;;;;;12.40;7.40;;;4.80;99.90;;;;;;4160993;28;20515;-83
2021/01/30 01:53:20;;;;;;;11.02;6.63;;;4.70;99.90;;;;;;4160340;28;20025;-83
2021/01/30 01:55:21;;;;;;;15.60;7.55;;;4.70;99.90;;;;;;4169943;28;20472;-83
2021/01/30 01:57:23;;;;;;;10.40;6.43;;;4.70;99.90;;;;;;4130495;28;20414;-83
2021/01/30 01:59:25;;;;;;;10.85;7.25;;;4.70;99.90;;;;;;4141816;28;20049;-83
2021/01/30 02:01:25;;;;;;;12.52;6.93;;;4.60;99.90;;;;;;4170152;28;20029;-83
2021/01/30 02:03:27;;;;;;;10.70;5.47;;;4.70;99.90;;;;;;4156389;28;20030;-83
2021/01/30 02:05:31;;;;;;;8.85;5.70;;;4.60;99.90;;;;;;4170816;28;20033;-83
2021/01/30 02:07:40;;;;;;;8.27;5.57;;;4.60;99.90;;;;;;4172543;28;20413;-83
2021/01/30 02:09:40;;;;;;;9.23;5.40;;;4.50;99.90;;;;;;4170581;28;20032;-83
2021/01/30 02:11:43;;;;;;;8.15;5.60;;;4.40;99.90;;;;;;4162661;28;20711;-83
2021/01/30 02:13:49;;;;;;;8.18;4.90;;;4.40;99.90;;;;;;4144356;28;22981;-83
2021/01/30 02:15:55;;;;;;;6.38;5.18;;;4.40;99.90;;;;;;4160184;28;20022;-83
2021/01/30 02:18:22;;;;;;;8.65;5.68;;;4.30;99.90;;;;;;4176913;28;20447;-83
2021/01/30 02:20:44;;;;;;;11.73;6.40;;;4.30;99.90;;;;;;4161885;28;20033;-83
2021/01/30 02:23:05;;;;;;;7.75;5.57;;;4.30;99.90;;;;;;4143648;28;20037;-83
2021/01/30 02:25:36;;;;;;;7.43;5.50;;;4.30;99.90;;;;;;4152945;28;20029;-83
2021/01/30 02:28:04;;;;;;;6.28;5.35;;;4.30;99.90;;;;;;4147327;28;20058;-83
2021/01/30 02:30:05;;;;;;;10.30;6.13;;;4.30;99.90;;;;;;4173344;28;20168;-83
2021/01/30 02:32:50;;;;;;;9.23;6.30;;;4.40;99.90;;;;;;4147176;28;20026;-83
2021/01/30 02:35:12;;;;;;;7.25;6.10;;;4.30;99.90;;;;;;4161474;28;20490;-82
2021/01/30 02:37:23;;;;;;;10.15;6.80;;;4.40;99.90;;;;;;4165522;28;20582;-82
2021/01/30 02:39:36;;;;;;;8.55;7.10;;;4.40;99.90;;;;;;4152490;28;20482;-82
2021/01/30 02:41:40;;;;;;;14.90;11.25;;;4.30;99.90;;;;;;4165100;28;20036;-82
2021/01/30 02:43:47;;;;;;;22.58;13.80;;;4.30;99.90;;;;;;4150706;28;20030;-82
2021/01/30 02:46:01;;;;;;;20.42;14.88;;;4.30;99.90;;;;;;4148268;28;20120;-82
2021/01/30 02:48:09;;;;;;;20.52;14.65;;;4.30;99.90;;;;;;4147385;28;20761;-82
2021/01/30 02:50:21;;;;;;;21.10;14.90;;;4.30;99.90;;;;;;4157269;28;20025;-82
2021/01/30 02:52:38;;;;;;;24.35;17.52;;;4.20;99.90;;;;;;4163939;28;20131;-82
2021/01/30 02:54:39;;;;;;;23.90;17.17;;;4.20;99.90;;;;;;4179790;28;20508;-82
2021/01/30 02:56:40;;;;;;;26.05;17.23;;;4.20;99.90;;;;;;4147382;28;20065;-82
2021/01/30 02:58:57;;;;;;;26.52;18.05;;;4.10;99.90;;;;;;4147268;28;20033;-82
2021/01/30 03:00:58;;;;;;;25.42;17.50;;;4.10;99.90;;;;;;4149259;28;20045;-82
2021/01/30 03:02:59;;;;;;;24.70;17.30;;;4.10;99.90;;;;;;4160279;28;20057;-82
2021/01/30 03:05:01;;;;;;;26.77;18.10;;;4.00;99.90;;;;;;4149125;28;20060;-82
2021/01/30 03:07:43;;;;;;;24.02;15.80;;;4.00;99.90;;;;;;4169166;28;20120;-82
2021/01/30 03:09:52;;;;;;;22.55;16.05;;;3.90;99.90;;;;;;4161580;28;20030;-83
2021/01/30 03:12:28;;;;;;;23.85;16.90;;;3.90;99.90;;;;;;4168017;28;20457;-83
2021/01/30 03:14:29;;;;;;;24.52;16.40;;;3.80;99.90;;;;;;4158233;28;20592;-83
2021/01/30 03:16:36;;;;;;;24.73;17.42;;;3.80;99.90;;;;;;4164274;28;20034;-83
2021/01/30 03:18:39;;;;;;;22.25;16.08;;;3.70;99.90;;;;;;4180122;28;20033;-83
2021/01/30 03:20:44;;;;;;;23.80;17.15;;;3.70;99.90;;;;;;4161083;28;20033;-83
2021/01/30 03:22:47;;;;;;;25.83;17.60;;;3.70;99.90;;;;;;4170061;28;20037;-83
2021/01/30 03:24:49;;;;;;;25.88;17.55;;;3.70;99.90;;;;;;4164705;28;20036;-83
2021/01/30 03:26:50;;;;;;;25.77;17.92;;;3.70;99.90;;;;;;4153091;28;20034;-83
2021/01/30 03:28:51;;;;;;;24.45;16.77;;;3.60;99.90;;;;;;4139486;28;20060;-83
2021/01/30 03:30:52;;;;;;;25.83;17.77;;;3.60;99.90;;;;;;4160664;28;20392;-83
2021/01/30 03:32:52;;;;;;;24.45;16.27;;;3.60;99.90;;;;;;4146870;28;20414;-83
2021/01/30 03:34:55;;;;;;;28.80;19.75;;;3.60;99.90;;;;;;4162558;28;20033;-83
2021/01/30 03:37:00;;;;;;;24.75;17.52;;;3.60;99.90;;;;;;4172640;28;20036;-83
2021/01/30 03:39:13;;;;;;;22.33;16.02;;;3.50;99.90;;;;;;4150296;28;20136;-83
2021/01/30 03:41:13;;;;;;;24.38;16.30;;;3.50;99.90;;;;;;4147281;28;20040;-83
2021/01/30 03:43:15;;;;;;;24.20;16.90;;;3.50;99.90;;;;;;4164497;28;20116;-83
2021/01/30 03:45:19;;;;;;;20.95;15.73;;;3.50;99.90;;;;;;4156046;28;20474;-83
2021/01/30 03:47:21;;;;;;;25.05;16.98;;;3.50;99.90;;;;;;4145544;28;20041;-83
2021/01/30 03:49:22;;;;;;;24.33;15.18;;;3.40;99.90;;;;;;4161150;28;20029;-83
2021/01/30 03:51:23;;;;;;;24.52;16.35;;;3.50;99.90;;;;;;4170771;28;20045;-82
2021/01/30 03:53:23;;;;;;;25.63;16.90;;;3.40;99.90;;;;;;4154622;28;20095;-83
2021/01/30 03:55:24;;;;;;;24.80;15.80;;;3.40;99.90;;;;;;4164247;28;20094;-83
2021/01/30 03:57:25;;;;;;;26.88;18.35;;;3.40;99.90;;;;;;4173630;28;20044;-83
2021/01/30 03:59:26;;;;;;;26.10;18.35;;;3.40;99.90;;;;;;4141073;28;20075;-83
2021/01/30 04:01:33;;;;;;;23.27;16.35;;;3.30;99.90;;;;;;4165609;28;20067;-83
2021/01/30 04:03:35;;;;;;;20.45;14.52;;;3.40;99.90;;;;;;4174479;28;20043;-83
2021/01/30 04:05:36;;;;;;;19.23;14.00;;;3.30;99.90;;;;;;4171893;28;20136;-83
2021/01/30 04:07:37;;;;;;;15.93;12.80;;;3.20;99.90;;;;;;4172317;28;20085;-82
2021/01/30 04:09:38;;;;;;;17.93;13.13;;;3.20;99.90;;;;;;4164100;28;20029;-83
2021/01/30 04:11:40;;;;;;;17.30;12.63;;;3.20;99.90;;;;;;4162292;28;20032;-82
2021/01/30 04:13:41;;;;;;;16.60;12.60;;;3.10;99.90;;;;;;4170333;28;20033;-83
2021/01/30 04:15:43;;;;;;;19.23;13.13;;;3.10;99.90;;;;;;4163821;28;20159;-83
2021/01/30 04:17:44;;;;;;;14.90;12.15;;;3.10;99.90;;;;;;4160331;28;20544;-83
2021/01/30 04:19:44;;;;;;;15.45;11.45;;;3.20;99.90;;;;;;4163716;28;20025;-83
2021/01/30 04:21:55;;;;;;;16.83;13.10;;;3.10;99.90;;;;;;4157799;28;20044;-83
2021/01/30 04:23:56;;;;;;;17.40;13.30;;;3.00;99.90;;;;;;4151502;28;20057;-83
2021/01/30 04:25:57;;;;;;;17.42;13.75;;;3.00;99.90;;;;;;4164839;28;20048;-83
2021/01/30 04:27:58;;;;;;;17.17;13.65;;;3.00;99.90;;;;;;4167870;28;20025;-83
2021/01/30 04:29:58;;;;;;;18.25;13.00;;;3.00;99.90;;;;;;4161981;28;20033;-83
2021/01/30 04:31:59;;;;;;;18.42;13.52;;;2.90;99.90;;;;;;4170017;28;20116;-83
2021/01/30 04:33:59;;;;;;;17.92;13.00;;;3.00;99.90;;;;;;4171346;28;20057;-83
2021/01/30 04:36:00;;;;;;;19.65;13.48;;;3.00;99.90;;;;;;4148698;28;20029;-83
2021/01/30 04:38:02;;;;;;;17.65;13.45;;;3.00;99.90;;;;;;4158698;28;20466;-83
2021/01/30 04:40:06;;;;;;;16.80;13.02;;;3.00;99.90;;;;;;4145757;28;20098;-83
2021/01/30 04:42:19;;;;;;;17.52;12.82;;;3.00;99.90;;;;;;4161568;28;20060;-83
2021/01/30 04:44:37;;;;;;;16.30;12.02;;;3.10;99.90;;;;;;4176074;28;20395;-83
2021/01/30 04:47:09;;;;;;;16.10;12.90;;;3.10;99.90;;;;;;4162632;28;20033;-83
2021/01/30 04:49:21;;;;;;;17.75;13.02;;;3.10;99.90;;;;;;4141739;28;20037;-83
2021/01/30 04:51:30;;;;;;;21.00;14.40;;;3.10;99.90;;;;;;4150902;28;20053;-83
2021/01/30 04:54:10;;;;;;;18.38;13.52;;;3.00;99.90;;;;;;4162039;28;20257;-83
2021/01/30 04:56:42;;;;;;;19.40;14.98;;;3.00;99.90;;;;;;4166021;28;20076;-83
2021/01/30 04:58:55;;;;;;;19.58;14.35;;;3.00;99.90;;;;;;4168614;28;20038;-83
2021/01/30 05:01:38;;;;;;;20.42;14.20;;;3.00;99.90;;;;;;4160440;28;20045;-83
2021/01/30 05:03:57;;;;;;;18.17;13.45;;;3.00;99.90;;;;;;4153042;28;20132;-83
2021/01/30 05:06:05;;;;;;;18.55;13.68;;;3.00;99.90;;;;;;4161462;28;20053;-83
2021/01/30 05:08:14;;;;;;;19.63;13.30;;;3.00;99.90;;;;;;4156669;28;20584;-83
2021/01/30 05:10:36;;;;;;;17.58;12.77;;;3.00;99.90;;;;;;4150608;28;20124;-83
2021/01/30 05:13:13;;;;;;;16.77;12.10;;;3.00;99.90;;;;;;4162325;28;20508;-82
2021/01/30 05:15:17;;;;;;;17.42;12.68;;;3.00;99.90;;;;;;4188368;28;20409;-83
2021/01/30 05:17:24;;;;;;;19.63;13.95;;;2.80;99.90;;;;;;4154750;28;20037;-83
2021/01/30 05:19:25;;;;;;;19.40;13.70;;;2.70;99.90;;;;;;4150002;28;20401;-82
2021/01/30 05:21:53;;;;;;;17.63;13.25;;;2.70;99.90;;;;;;4161371;28;20037;-83
2021/01/30 05:23:54;;;;;;;16.48;12.80;;;2.70;99.90;;;;;;4139192;28;20052;-83
2021/01/30 05:26:33;;;;;;;19.50;14.23;;;2.60;99.90;;;;;;4161523;28;20065;-83
2021/01/30 05:28:59;;;;;;;16.92;13.35;;;2.40;99.90;;;;;;4176418;28;20045;-83
2021/01/30 05:31:36;;;;;;;18.02;13.25;;;2.30;99.90;;;;;;4147439;28;20029;-83
2021/01/30 05:33:46;;;;;;;19.33;12.52;;;2.40;99.90;;;;;;4146619;28;20038;-83
2021/01/30 05:36:20;;;;;;;18.00;12.82;;;2.40;99.90;;;;;;4152060;28;20044;-83
2021/01/30 05:38:32;;;;;;;;;;;2.50;99.90;;;;;;4148974;28;20053;-83
2021/01/30 05:40:36;;;;;;;17.20;12.57;;;2.40;99.90;;;;;;4160233;28;20012;-83
2021/01/30 05:43:07;;;;;;;19.38;13.65;;;2.40;99.90;;;;;;4152695;28;20033;-83
2021/01/30 05:45:41;;;;;;;18.60;14.05;;;2.20;99.90;;;;;;4173400;28;20108;-83
2021/01/30 05:47:47;;;;;;;18.40;13.73;;;2.30;99.90;;;;;;4139360;28;20042;-83
2021/01/30 05:49:57;;;;;;;17.77;13.50;;;2.30;99.90;;;;;;4143344;28;20112;-83
2021/01/30 05:52:14;;;;;;;17.38;13.18;;;2.30;99.90;;;;;;4142528;28;20037;-83
2021/01/30 05:54:15;;;;;;;17.20;13.30;;;2.30;99.90;;;;;;4169666;28;20048;-83
2021/01/30 05:56:16;;;;;;;20.80;14.18;;;2.30;99.90;;;;;;4161216;28;20468;-83
2021/01/30 05:58:39;;;;;;;18.33;13.13;;;2.20;99.90;;;;;;4171018;28;20039;-83
2021/01/30 06:00:41;;;;;;;19.10;13.40;;;2.30;99.90;;;;;;4160578;28;20072;-83
2021/01/30 06:03:04;;;;;;;17.52;13.15;;;2.30;99.90;;;;;;4145049;28;20502;-83
2021/01/30 06:05:17;;;;;;;18.40;13.63;;;2.20;99.90;;;;;;4148332;28;20033;-83
2021/01/30 06:07:35;;;;;;;18.77;13.95;;;2.20;99.90;;;;;;4161609;28;20566;-83
2021/01/30 06:09:36;;;;;;;18.33;12.95;;;2.20;99.90;;;;;;4168589;28;20104;-83
2021/01/30 06:11:47;;;;;;;16.10;12.65;;;2.10;99.90;;;;;;4144344;28;20037;-83
2021/01/30 06:14:03;;;;;;;18.17;13.13;;;2.20;99.90;;;;;;4160816;28;20116;-83
2021/01/30 06:16:03;;;;;;;17.60;13.02;;;2.20;99.90;;;;;;4162600;28;20032;-83
2021/01/30 06:18:17;;;;;;;19.38;14.35;;;2.20;99.90;;;;;;4143933;28;20053;-83
2021/01/30 06:20:21;;;;;;;18.27;13.85;;;2.20;99.90;;;;;;4158121;28;20107;-83
2021/01/30 06:23:03;;;;;;;16.58;12.27;;;2.10;99.90;;;;;;4158481;28;20140;-83
2021/01/30 06:25:40;;;;;;;21.08;14.23;;;2.10;99.90;;;;;;4179995;28;20388;-83
2021/01/30 06:27:42;;;;;;;17.20;13.13;;;2.00;99.90;;;;;;4147538;28;20040;-83
2021/01/30 06:30:01;;;;;;;;;;;2.10;99.90;;;;;;4146208;28;20038;-83
2021/01/30 06:32:33;;;;;;;17.13;13.25;;;2.00;99.90;;;;;;4158667;28;19913;-83
2021/01/30 06:34:37;;;;;;;22.58;14.68;;;1.90;99.90;;;;;;4155239;28;20092;-83
2021/01/30 06:36:48;;;;;;;17.15;13.07;;;1.90;99.90;;;;;;4131285;28;20064;-83
2021/01/30 06:39:06;;;;;;;19.10;13.98;;;2.00;99.90;;;;;;4152044;28;20026;-83
2021/01/30 06:41:18;;;;;;;19.08;14.55;;;1.90;99.90;;;;;;4160061;28;20482;-83
2021/01/30 06:43:30;;;;;;;19.08;14.23;;;1.90;99.90;;;;;;4144713;28;20030;-83
2021/01/30 06:45:37;;;;;;;20.60;14.73;;;1.90;99.90;;;;;;4146462;28;20087;-83
2021/01/30 06:47:49;;;;;;;19.00;14.45;;;1.90;99.90;;;;;;4159981;28;20130;-83
2021/01/30 06:49:54;;;;;;;18.83;14.40;;;1.80;99.90;;;;;;4145853;28;20038;-83
2021/01/30 06:52:07;;;;;;;18.98;14.18;;;1.80;99.90;;;;;;4160684;28;20037;-83
2021/01/30 06:54:27;;;;;;;;;;;1.80;99.90;;;;;;4144237;28;20041;-83
2021/01/30 06:56:35;;;;;;;18.40;13.43;;;1.80;99.90;;;;;;4175143;28;19917;-83
2021/01/30 06:58:41;;;;;;;18.88;14.43;;;1.80;99.90;;;;;;4143521;28;20037;-83
2021/01/30 07:00:42;;;;;;;17.85;14.18;;;1.80;99.90;;;;;;4151379;28;20037;-83
2021/01/30 07:02:47;;;;;;;19.52;13.70;;;1.70;99.90;;;;;;4160538;28;20524;-83
2021/01/30 07:05:14;;;;;;;15.40;12.75;;;1.80;99.90;;;;;;4162519;28;20034;-83
2021/01/30 07:07:33;;;;;;;18.05;13.50;;;1.80;99.90;;;;;;4139012;28;20060;-85
2021/01/30 07:10:16;;;;;;;14.63;11.85;;;1.80;99.90;;;;;;4167869;28;20084;-83
2021/01/30 07:12:26;;;;;;;15.73;11.95;;;1.80;99.90;;;;;;4177324;28;20360;-83
2021/01/30 07:14:59;;;;;;;15.30;11.07;;;1.70;99.90;;;;;;4152466;28;20025;-83
2021/01/30 07:17:21;;;;;;;15.05;10.70;;;1.70;99.90;;;;;;4160632;28;20030;-83
2021/01/30 07:19:40;;;;;;;15.77;11.80;;;1.70;99.90;;;;;;4175588;28;20045;-83
2021/01/30 07:21:46;;;;;;;13.50;10.57;;;1.70;99.90;;;;;;4156932;28;20047;-83
2021/01/30 07:24:08;;;;;;;14.45;10.70;;;1.70;99.90;;;;;;4147920;28;20536;-83
2021/01/30 07:26:35;;;;;;;17.85;12.23;;;1.70;99.90;;;;;;4138302;28;20037;-83
2021/01/30 07:28:43;;;;;;;16.55;11.65;;;1.70;99.90;;;;;;4149799;28;20034;-83
2021/01/30 07:30:49;;;;;;;14.32;10.93;;;1.70;99.90;;;;;;4178577;28;20071;-83
2021/01/30 07:33:01;;;;;;;13.75;10.80;;;1.80;99.90;;;;;;4168189;28;20033;-83
2021/01/30 07:35:27;;;;;;;14.77;11.05;;;1.80;99.90;;;;;;4157849;28;20030;-83
2021/01/30 07:37:35;;;;;;;12.77;9.98;;;1.80;99.90;;;;;;4163027;28;20423;-83
2021/01/30 07:40:14;;;;;;;14.07;10.70;;;1.70;99.90;;;;;;4144397;28;20030;-83
2021/01/30 07:42:44;;;;;;;13.13;9.77;;;1.70;99.90;;;;;;4117508;28;20054;-83
2021/01/30 07:45:09;;;;;;;12.45;9.60;;;1.60;99.90;;;;;;4153267;28;20030;-83
2021/01/30 07:47:13;;;;;;;12.50;10.05;;;1.70;99.90;;;;;;4168456;28;20521;-83
2021/01/30 07:49:21;;;;;;;13.52;10.30;;;1.80;99.90;;;;;;4168548;28;20613;-83
2021/01/30 07:51:28;;;;;;;13.50;10.00;;;1.80;99.90;;;;;;4167842;28;20083;-83
2021/01/30 07:53:29;;;;;;;12.50;10.25;;;1.80;99.90;;;;;;4146331;28;20034;-83
2021/01/30 07:55:30;;;;;;;13.23;10.45;;;1.80;99.90;;;;;;4172631;28;20088;-83
2021/01/30 07:57:57;;;;;;;14.27;10.55;;;1.70;99.90;;;;;;4164237;28;20509;-83
2021/01/30 08:00:05;;;;;;;12.27;9.35;;;1.80;99.90;;;;;;4154495;28;20114;-82
2021/01/30 08:02:21;;;;;;;13.70;10.63;;;1.90;99.90;;;;;;4162970;28;20068;-83
2021/01/30 08:05:02;;;;;;;13.50;9.95;;;1.90;99.90;;;;;;4158355;28;20104;-83
2021/01/30 08:07:45;;;;;;;17.25;12.52;;;2.00;99.90;;;;;;4146420;28;20041;-82
2021/01/30 08:10:07;;;;;;;15.95;11.68;;;1.90;99.90;;;;;;4162804;28;20033;-82
2021/01/30 08:12:28;;;;;;;13.60;10.20;;;1.80;99.90;;;;;;4179667;28;20689;-82
2021/01/30 08:15:04;;;;;;;14.13;10.65;;;1.80;99.90;;;;;;4169615;28;20042;-83
2021/01/30 08:17:23;;;;;;;15.30;9.85;;;1.80;99.90;;;;;;4160631;28;20080;-83
2021/01/30 08:19:50;;;;;;;12.23;9.18;;;1.80;99.90;;;;;;4147347;28;20034;-82
2021/01/30 08:22:00;;;;;;;12.85;8.50;;;1.80;99.90;;;;;;4163857;28;20061;-83
2021/01/30 08:24:17;;;;;;;9.25;7.65;;;1.80;99.90;;;;;;4167168;28;20033;-83
2021/01/30 08:26:28;;;;;;;10.32;7.20;;;1.80;99.90;;;;;;4166364;28;20042;-83
2021/01/30 08:28:38;;;;;;;9.07;7.25;;;1.70;99.90;;;;;;4153741;28;20044;-82
2021/01/30 08:30:42;;;;;;;10.18;7.18;;;1.80;99.90;;;;;;4153854;28;20088;-83
2021/01/30 08:33:01;;;;;;;7.32;6.50;;;1.70;99.90;;;;;;4171429;28;20271;-83
2021/01/30 08:35:20;;;;;;;8.95;7.53;;;1.70;99.90;;;;;;4143450;28;20521;-82
2021/01/30 08:37:20;;;;;;;9.63;6.50;;;1.70;99.90;;;;;;4157577;28;20045;-82
2021/01/30 08:39:33;;;;;;;9.63;6.57;;;1.70;99.90;;;;;;4164196;28;20144;-82
2021/01/30 08:41:40;;;;;;;;;;;1.70;99.90;;;;;;4164178;28;20044;-82
2021/01/30 08:43:47;;;;;;;9.95;7.05;;;1.70;99.90;;;;;;4176478;28;19967;-83
2021/01/30 08:45:48;;;;;;;10.70;7.78;;;1.60;99.90;;;;;;4165315;28;20041;-83
2021/01/30 08:47:53;;;;;;;12.05;9.25;;;1.70;99.90;;;;;;4153421;28;20030;-83
2021/01/30 08:50:05;;;;;;;11.00;8.57;;;1.70;99.90;;;;;;4173403;28;20057;-83
2021/01/30 08:52:11;;;;;;;12.02;8.55;;;1.60;99.90;;;;;;4169700;28;20025;-83
2021/01/30 08:54:46;;;;;;;11.27;8.77;;;1.60;99.90;;;;;;4149146;28;20080;-83
2021/01/30 08:56:51;;;;;;;11.30;8.55;;;1.80;99.90;;;;;;4159760;28;20034;-83
2021/01/30 08:58:52;;;;;;;10.40;7.90;;;1.70;99.90;;;;;;4167852;28;20026;-83
2021/01/30 09:00:54;;;;;;;10.93;8.35;;;1.80;99.90;;;;;;4146302;28;20042;-83
2021/01/30 09:02:56;;;;;;;;;;;1.80;99.90;;;;;;4170635;28;20021;-83
2021/01/30 09:05:20;;;;;;;8.95;6.72;;;1.80;99.90;;;;;;4151121;28;19963;-83
2021/01/30 09:07:42;;;;;;;8.07;6.55;;;1.80;99.90;;;;;;4165147;28;20183;-83
2021/01/30 09:10:20;;;;;;;7.30;5.85;;;1.80;99.90;;;;;;4143522;28;20049;-83
2021/01/30 09:12:57;;;;;;;7.38;5.90;;;1.90;99.90;;;;;;4146646;28;20129;-83
2021/01/30 09:14:58;;;;;;;6.90;5.53;;;1.90;99.90;;;;;;4160065;28;20041;-83
2021/01/30 09:17:06;;;;;;;8.75;6.47;;;1.80;99.90;;;;;;4163989;28;20041;-83
2021/01/30 09:19:13;;;;;;;10.15;7.10;;;1.80;99.90;;;;;;4163672;28;20458;-83
2021/01/30 09:21:39;;;;;;;8.68;6.47;;;1.70;99.90;;;;;;4162433;28;20045;-83
2021/01/30 09:24:15;;;;;;;7.90;5.85;;;1.80;99.90;;;;;;4157466;28;20037;-83
2021/01/30 09:26:49;;;;;;;10.07;6.20;;;1.80;99.90;;;;;;4152349;28;20180;-83
2021/01/30 09:28:59;;;;;;;7.80;5.70;;;1.80;99.90;;;;;;4157610;28;20040;-83
2021/01/30 09:31:14;;;;;;;8.35;5.95;;;1.80;99.90;;;;;;4150043;28;20037;-83
2021/01/30 09:33:26;;;;;;;6.68;5.38;;;1.80;99.90;;;;;;4167644;28;20124;-83
2021/01/30 09:35:38;;;;;;;8.95;5.63;;;1.80;99.90;;;;;;4170309;28;20041;-83
2021/01/30 09:37:42;;;;;;;8.32;5.50;;;1.90;99.90;;;;;;4163125;28;20581;-82
2021/01/30 09:39:43;;;;;;;7.65;5.47;;;1.90;99.90;;;;;;4151045;28;20125;-82
2021/01/30 09:41:44;;;;;;;5.15;3.97;;;1.90;99.90;;;;;;4161101;28;20025;-83
2021/01/30 09:43:44;;;;;;;5.40;4.55;;;1.90;99.90;;;;;;4154478;28;20591;-83
2021/01/30 09:45:54;;;;;;;5.05;4.03;;;2.00;99.90;;;;;;4147168;28;20038;-83
2021/01/30 09:47:56;;;;;;;6.72;4.65;;;2.00;99.90;;;;;;4145361;28;20089;-83
2021/01/30 09:50:01;;;;;;;6.18;4.05;;;2.10;99.90;;;;;;4173276;28;20041;-83
2021/01/30 09:52:05;;;;;;;5.93;3.83;;;2.00;99.90;;;;;;4145678;28;20062;-83
2021/01/30 09:54:12;;;;;;;6.80;4.22;;;2.20;99.90;;;;;;4163826;28;20037;-83
2021/01/30 09:56:35;;;;;;;5.05;3.70;;;2.10;99.90;;;;;;4142497;28;20030;-83
2021/01/30 09:58:37;;;;;;;5.28;3.70;;;2.20;99.90;;;;;;4163700;28;20022;-83
2021/01/30 10:00:43;;;;;;;5.20;3.97;;;2.20;99.90;;;;;;4174462;28;20547;-83
2021/01/30 10:02:44;;;;;;;5.13;4.07;;;2.20;99.90;;;;;;4146076;28;20061;-83
2021/01/30 10:04:45;;;;;;;8.00;4.15;;;2.20;99.90;;;;;;4164405;28;20033;-83
2021/01/30 10:06:48;;;;;;;5.32;3.95;;;2.30;99.90;;;;;;4147383;28;20048;-83
2021/01/30 10:08:49;;;;;;;7.70;4.55;;;2.40;99.90;;;;;;4145630;28;20088;-83
2021/01/30 10:11:07;;;;;;;7.15;4.68;;;2.40;99.90;;;;;;4166019;28;20033;-83
2021/01/30 10:13:14;;;;;;;5.57;4.20;;;2.50;99.90;;;;;;4164342;28;20034;-83
2021/01/30 10:15:26;;;;;;;5.72;4.20;;;2.50;99.90;;;;;;4164980;28;20167;-83
2021/01/30 10:17:39;;;;;;;5.63;4.07;;;2.40;99.90;;;;;;4150714;28;20032;-83
2021/01/30 10:19:40;;;;;;;6.93;4.45;;;2.50;99.90;;;;;;4165731;28;20034;-83
2021/01/30 10:21:48;;;;;;;7.15;4.60;;;2.50;99.90;;;;;;4163413;28;20037;-83
2021/01/30 10:23:51;;;;;;;6.78;4.75;;;2.60;99.90;;;;;;4163930;28;20698;-83
2021/01/30 10:26:01;;;;;;;;;;;2.60;99.90;;;;;;4161032;28;20044;-83
2021/01/30 10:28:10;;;;;;;6.00;4.32;;;2.60;99.90;;;;;;4163046;28;19928;-83
2021/01/30 10:30:16;;;;;;;5.25;4.07;;;2.50;99.90;;;;;;4161598;28;20756;-83
2021/01/30 10:32:44;;;;;;;6.40;4.50;;;2.60;99.90;;;;;;4135478;28;20083;-83
2021/01/30 10:34:52;;;;;;;6.75;4.18;;;2.60;99.90;;;;;;4147376;28;20099;-83
2021/01/30 10:37:07;;;;;;;8.38;4.38;;;2.50;99.90;;;;;;4143849;28;20033;-83
2021/01/30 10:39:08;;;;;;;5.75;4.35;;;2.50;99.90;;;;;;4163882;28;20030;-83
2021/01/30 10:41:18;;;;;;;6.03;3.95;;;2.40;99.90;;;;;;4145514;28;20052;-83
2021/01/30 10:43:24;;;;;;;5.13;3.83;;;2.50;99.90;;;;;;4180963;28;20036;-83
2021/01/30 10:45:28;;;;;;;5.90;4.35;;;2.50;99.90;;;;;;4163424;28;20034;-83
2021/01/30 10:47:29;;;;;;;6.07;4.10;;;2.50;99.90;;;;;;4165575;28;20026;-83
2021/01/30 10:49:35;;;;;;;5.35;3.88;;;2.60;99.90;;;;;;4150038;28;20558;-83
2021/01/30 10:51:37;;;;;;;5.05;4.00;;;2.60;99.90;;;;;;4170563;28;20104;-83
2021/01/30 10:53:40;;;;;;;5.40;3.80;;;2.60;99.90;;;;;;4160674;28;20025;-83
2021/01/30 10:55:40;;;;;;;4.95;3.70;;;2.70;99.90;;;;;;4146176;28;20030;-83
2021/01/30 10:57:41;;;;;;;4.75;3.38;;;2.60;99.90;;;;;;4164130;28;20044;-83
2021/01/30 11:00:01;;;;;;;5.28;3.35;;;2.50;99.90;;;;;;4163846;28;20049;-83
2021/01/30 11:02:20;;;;;;;4.60;3.58;;;2.50;99.90;;;;;;4175533;28;20025;-83
2021/01/30 11:04:27;;;;;;;5.00;3.38;;;2.60;99.90;;;;;;4173365;28;20033;-83
2021/01/30 11:06:45;;;;;;;3.97;3.10;;;2.60;99.90;;;;;;4165889;28;20087;-83
2021/01/30 11:09:24;;;;;;;5.10;3.72;;;2.60;99.90;;;;;;4158375;28;20052;-83
2021/01/30 11:11:31;;;;;;;4.30;2.90;;;2.60;99.90;;;;;;4145898;28;20034;-83
2021/01/30 11:13:39;;;;;;;4.63;3.20;;;2.70;99.90;;;;;;4165126;28;20034;-83
2021/01/30 11:15:43;;;;;;;5.20;3.13;;;2.80;99.90;;;;;;4166064;28;20252;-83
2021/01/30 11:17:45;;;;;;;5.53;3.15;;;2.80;99.90;;;;;;4168957;28;20026;-83